createdAt,value
2023-03-15T00:01:17.142Z,68.18
2023-03-15T00:03:51.204Z,68.18
2023-03-15T00:06:25.873Z,68.07
2023-03-15T00:08:58.506Z,68.10
2023-03-15T00:11:26.671Z,68.11
2023-03-15T00:13:54.267Z,68.15
2023-03-15T00:16:23.006Z,68.11
2023-03-15T00:18:50.746Z,68.09
2023-03-15T00:21:18.228Z,68.32
2023-03-15T00:23:46.075Z,68.41
2023-03-15T00:26:14.261Z,68.42
2023-03-15T00:28:41.876Z,68.31
2023-03-15T00:31:16.458Z,68.34
2023-03-15T00:33:45.243Z,68.36
2023-03-15T00:36:13.443Z,68.43
2023-03-15T00:38:44.086Z,68.52
2023-03-15T00:41:14.944Z,68.32
2023-03-15T00:43:45.320Z,68.20
2023-03-15T00:46:14.295Z,68.41
2023-03-15T00:48:41.875Z,68.45
2023-03-15T00:51:16.093Z,68.43
2023-03-15T00:53:45.993Z,68.50
2023-03-15T00:56:19.925Z,68.50
2023-03-15T00:58:47.850Z,68.50
2023-03-15T01:01:19.725Z,68.49
2023-03-15T01:03:48.441Z,68.48
2023-03-15T01:06:18.887Z,68.44
2023-03-15T01:08:46.487Z,68.57
2023-03-15T01:11:17.664Z,68.61
2023-03-15T01:13:45.208Z,68.70
2023-03-15T01:16:14.832Z,68.78
2023-03-15T01:18:43.273Z,68.73
2023-03-15T01:21:14.727Z,68.76
2023-03-15T01:23:42.698Z,68.75
2023-03-15T01:26:13.194Z,68.68
2023-03-15T01:28:41.173Z,68.82
2023-03-15T01:31:30.438Z,68.64
2023-03-15T01:33:59.361Z,68.70
2023-03-15T01:36:27.417Z,68.93
2023-03-15T01:38:55.308Z,68.85
2023-03-15T01:41:24.688Z,69.00
2023-03-15T01:43:53.326Z,68.98
2023-03-15T01:46:34.796Z,69.04
2023-03-15T01:49:22.911Z,69.07
2023-03-15T01:52:14.149Z,69.07
2023-03-15T01:54:46.978Z,69.17
2023-03-15T01:57:37.266Z,69.26
2023-03-15T02:00:22.068Z,69.22
2023-03-15T02:02:58.018Z,69.13
2023-03-15T02:05:29.189Z,69.25
2023-03-15T02:07:56.846Z,69.22
2023-03-15T02:10:34.431Z,69.29
2023-03-15T02:13:02.581Z,69.31
2023-03-15T02:15:31.107Z,69.29
2023-03-15T02:17:58.974Z,69.37
2023-03-15T02:20:57.446Z,69.39
2023-03-15T02:23:25.082Z,69.46
2023-03-15T02:26:11.453Z,69.33
2023-03-15T02:28:41.058Z,69.33
2023-03-15T02:31:09.060Z,69.49
2023-03-15T02:33:51.182Z,69.37
2023-03-15T02:36:21.790Z,69.52
2023-03-15T02:38:50.700Z,69.31
2023-03-15T02:41:36.581Z,69.38
2023-03-15T02:44:14.872Z,69.37
2023-03-15T02:46:46.116Z,69.42
2023-03-15T02:49:17.567Z,69.43
2023-03-15T02:51:45.070Z,69.34
2023-03-15T02:54:12.695Z,69.41
2023-03-15T02:56:41.024Z,69.31
2023-03-15T02:59:08.730Z,69.45
2023-03-15T03:01:39.012Z,69.28
2023-03-15T03:04:07.993Z,69.24
2023-03-15T03:06:35.566Z,69.52
2023-03-15T03:09:04.254Z,69.48
2023-03-15T03:11:31.788Z,69.43
2023-03-15T03:14:01.180Z,69.46
2023-03-15T03:16:28.773Z,69.53
2023-03-15T03:18:58.114Z,69.52
2023-03-15T03:21:25.605Z,69.60
2023-03-15T03:23:54.637Z,69.47
2023-03-15T03:26:27.724Z,69.56
2023-03-15T03:28:56.315Z,69.69
2023-03-15T03:31:27.055Z,69.57
2023-03-15T03:33:57.062Z,69.46
2023-03-15T03:36:25.575Z,69.40
2023-03-15T03:38:53.981Z,69.50
2023-03-15T03:41:21.484Z,69.49
2023-03-15T03:43:49.628Z,69.39
2023-03-15T03:46:17.359Z,69.47
2023-03-15T03:48:44.980Z,69.41
2023-03-15T03:51:13.813Z,69.54
2023-03-15T03:53:41.389Z,69.58
2023-03-15T03:56:09.129Z,69.44
2023-03-15T03:58:36.777Z,69.44
2023-03-15T04:01:04.815Z,69.46
2023-03-15T04:03:33.057Z,69.35
2023-03-15T04:06:00.624Z,69.43
2023-03-15T04:08:28.466Z,69.33
2023-03-15T04:10:57.646Z,69.46
2023-03-15T04:13:25.890Z,69.41
2023-03-15T04:15:57.801Z,69.43
2023-03-15T04:18:26.273Z,69.48
2023-03-15T04:20:56.829Z,69.21
2023-03-15T04:23:24.640Z,69.28
2023-03-15T04:25:55.038Z,69.26
2023-03-15T04:28:25.424Z,69.24
2023-03-15T04:30:59.292Z,69.13
2023-03-15T04:33:27.830Z,68.99
2023-03-15T04:35:57.408Z,69.08
2023-03-15T04:38:27.130Z,69.16
2023-03-15T04:40:57.250Z,68.99
2023-03-15T04:43:28.038Z,69.25
2023-03-15T04:45:55.593Z,69.03
2023-03-15T04:48:23.641Z,69.29
2023-03-15T04:50:51.142Z,69.22
2023-03-15T04:53:18.674Z,69.32
2023-03-15T04:55:46.530Z,69.16
2023-03-15T04:58:13.991Z,69.32
2023-03-15T05:00:41.555Z,69.46
2023-03-15T05:03:09.446Z,69.24
2023-03-15T05:05:38.393Z,69.30
2023-03-15T05:08:05.866Z,69.34
2023-03-15T05:10:33.400Z,69.40
2023-03-15T05:13:01.163Z,69.44
2023-03-15T05:15:28.830Z,69.38
2023-03-15T05:17:56.419Z,69.44
2023-03-15T05:20:25.207Z,69.46
2023-03-15T05:22:55.399Z,69.40
2023-03-15T05:25:24.772Z,69.42
2023-03-15T05:27:53.058Z,69.44
2023-03-15T05:30:22.002Z,69.44
2023-03-15T05:32:50.002Z,69.57
2023-03-15T05:35:19.082Z,69.52
2023-03-15T05:37:46.772Z,69.70
2023-03-15T05:40:15.410Z,69.61
2023-03-15T05:42:42.934Z,69.77
2023-03-15T05:45:11.266Z,69.64
2023-03-15T05:47:40.284Z,69.78
2023-03-15T05:50:08.232Z,69.67
2023-03-15T05:52:35.833Z,69.60
2023-03-15T05:55:03.674Z,69.64
2023-03-15T05:57:33.951Z,69.70
2023-03-15T06:00:01.524Z,69.71
2023-03-15T06:02:29.101Z,69.70
2023-03-15T06:04:56.723Z,69.71
2023-03-15T06:07:24.299Z,69.77
2023-03-15T06:09:52.031Z,69.92
2023-03-15T06:12:24.097Z,69.85
2023-03-15T06:14:51.680Z,69.85
2023-03-15T06:17:19.295Z,69.72
2023-03-15T06:19:47.435Z,69.69
2023-03-15T06:22:15.286Z,69.67
2023-03-15T06:24:42.941Z,69.92
2023-03-15T06:27:10.666Z,69.99
2023-03-15T06:29:38.699Z,69.96
2023-03-15T06:32:12.337Z,70.06
2023-03-15T06:34:39.939Z,70.05
2023-03-15T06:37:10.259Z,69.94
2023-03-15T06:39:41.196Z,70.14
2023-03-15T06:42:09.872Z,70.07
2023-03-15T06:44:38.835Z,70.01
2023-03-15T06:47:08.047Z,70.13
2023-03-15T06:49:35.846Z,70.16
2023-03-15T06:52:07.813Z,70.09
2023-03-15T06:54:35.493Z,69.95
2023-03-15T06:57:03.387Z,70.08
2023-03-15T06:59:35.707Z,69.99
2023-03-15T07:02:07.536Z,70.12
2023-03-15T07:04:41.389Z,70.14
2023-03-15T07:07:16.375Z,70.22
2023-03-15T07:09:44.428Z,70.38
2023-03-15T07:12:13.532Z,70.46
2023-03-15T07:14:41.522Z,70.43
2023-03-15T07:17:09.443Z,70.29
2023-03-15T07:19:55.554Z,70.26
2023-03-15T07:22:27.169Z,70.09
2023-03-15T07:24:57.756Z,70.05
2023-03-15T07:27:30.536Z,70.07
2023-03-15T07:29:58.896Z,69.93
2023-03-15T07:32:27.775Z,69.95
2023-03-15T07:34:58.524Z,69.53
2023-03-15T07:37:29.776Z,69.52
2023-03-15T07:40:00.812Z,69.42
2023-03-15T07:42:29.687Z,69.61
2023-03-15T07:44:58.345Z,69.54
2023-03-15T07:47:26.256Z,69.53
2023-03-15T07:49:54.752Z,69.62
2023-03-15T07:52:24.090Z,69.57
2023-03-15T07:54:53.795Z,69.59
2023-03-15T07:57:23.240Z,69.56
2023-03-15T07:59:55.830Z,69.39
2023-03-15T08:02:33.691Z,69.11
2023-03-15T08:05:07.447Z,69.12
2023-03-15T08:07:36.991Z,69.29
2023-03-15T08:10:08.080Z,69.43
2023-03-15T08:12:35.811Z,69.58
2023-03-15T08:15:05.444Z,69.59
2023-03-15T08:17:34.602Z,69.28
2023-03-15T08:20:03.007Z,68.98
2023-03-15T08:22:30.527Z,69.03
2023-03-15T08:24:58.289Z,69.14
2023-03-15T08:27:25.920Z,69.04
2023-03-15T08:29:53.684Z,69.14
2023-03-15T08:32:21.885Z,69.22
2023-03-15T08:34:49.768Z,69.29
2023-03-15T08:37:18.029Z,69.38
2023-03-15T08:39:46.188Z,69.36
2023-03-15T08:42:14.328Z,69.36
2023-03-15T08:44:41.986Z,69.25
2023-03-15T08:47:10.124Z,68.92
2023-03-15T08:49:38.054Z,69.06
2023-03-15T08:52:06.501Z,68.83
2023-03-15T08:54:43.846Z,68.71
2023-03-15T08:57:12.678Z,68.80
2023-03-15T08:59:42.783Z,68.77
2023-03-15T09:02:14.167Z,69.15
2023-03-15T09:04:42.092Z,69.02
2023-03-15T09:07:11.395Z,68.63
2023-03-15T09:09:39.593Z,68.80
2023-03-15T09:12:08.015Z,68.61
2023-03-15T09:14:35.758Z,68.23
2023-03-15T09:17:08.082Z,68.14
2023-03-15T09:19:38.636Z,68.52
2023-03-15T09:22:16.289Z,68.48
2023-03-15T09:24:51.147Z,68.35
2023-03-15T09:27:23.760Z,68.06
2023-03-15T09:29:52.143Z,68.06
2023-03-15T09:32:21.060Z,67.98
2023-03-15T09:34:49.937Z,68.26
2023-03-15T09:37:18.379Z,68.16
2023-03-15T09:39:46.071Z,68.01
2023-03-15T09:42:22.869Z,68.13
2023-03-15T09:45:07.045Z,68.24
2023-03-15T09:48:06.914Z,68.13
2023-03-15T09:51:01.913Z,67.86
2023-03-15T09:53:41.962Z,67.79
2023-03-15T09:56:24.275Z,67.95
2023-03-15T09:58:59.648Z,67.79
2023-03-15T10:01:37.028Z,67.74
2023-03-15T10:04:16.633Z,67.88
2023-03-15T10:06:57.351Z,67.94
2023-03-15T10:09:33.741Z,67.80
2023-03-15T10:12:16.685Z,67.66
2023-03-15T10:15:16.955Z,67.69
2023-03-15T10:18:07.373Z,67.36
2023-03-15T10:20:46.750Z,67.44
2023-03-15T10:23:21.207Z,67.58
2023-03-15T10:25:51.592Z,67.84
2023-03-15T10:28:37.125Z,67.56
2023-03-15T10:31:21.586Z,67.29
2023-03-15T10:33:55.045Z,67.46
2023-03-15T10:36:25.874Z,66.96
2023-03-15T10:38:53.907Z,66.78
2023-03-15T10:41:30.533Z,67.08
2023-03-15T10:44:07.897Z,67.00
2023-03-15T10:46:35.619Z,66.94
2023-03-15T10:49:12.692Z,66.74
2023-03-15T10:51:49.774Z,66.77
2023-03-15T10:54:20.140Z,66.74
2023-03-15T10:57:13.241Z,66.62
2023-03-15T10:59:55.603Z,66.63
2023-03-15T11:02:25.273Z,66.45
2023-03-15T11:05:01.277Z,66.40
2023-03-15T11:07:29.330Z,66.63
2023-03-15T11:10:02.459Z,66.63
2023-03-15T11:12:33.358Z,66.91
2023-03-15T11:15:14.364Z,66.62
2023-03-15T11:17:52.609Z,66.67
2023-03-15T11:20:30.938Z,66.61
2023-03-15T11:23:00.902Z,66.47
2023-03-15T11:25:31.740Z,66.40
2023-03-15T11:28:01.608Z,66.25
2023-03-15T11:30:31.510Z,66.16
2023-03-15T11:33:05.862Z,66.39
2023-03-15T11:35:48.497Z,66.19
2023-03-15T11:38:36.415Z,66.28
2023-03-15T11:41:39.284Z,66.31
2023-03-15T11:44:20.712Z,66.26
2023-03-15T11:47:01.319Z,66.15
2023-03-15T11:49:37.910Z,66.05
2023-03-15T11:52:06.951Z,66.26
2023-03-15T11:54:34.530Z,66.07
2023-03-15T11:57:06.376Z,66.00
2023-03-15T11:59:38.155Z,65.78
2023-03-15T12:02:15.052Z,65.92
2023-03-15T12:04:47.586Z,66.00
2023-03-15T12:07:20.469Z,65.96
2023-03-15T12:09:56.131Z,65.68
2023-03-15T12:12:26.954Z,65.77
2023-03-15T12:15:26.565Z,65.65
2023-03-15T12:17:58.094Z,65.77
2023-03-15T12:20:42.825Z,65.97
2023-03-15T12:23:32.706Z,65.92
2023-03-15T12:26:03.387Z,65.91
2023-03-15T12:28:45.355Z,66.11
2023-03-15T12:31:14.410Z,65.96
2023-03-15T12:34:04.319Z,65.97
2023-03-15T12:36:38.910Z,65.72
2023-03-15T12:39:19.599Z,65.49
2023-03-15T12:41:50.697Z,65.43
2023-03-15T12:44:40.832Z,65.45
2023-03-15T12:47:10.883Z,65.22
2023-03-15T12:49:45.963Z,65.41
2023-03-15T12:52:28.492Z,65.46
2023-03-15T12:55:14.879Z,65.30
2023-03-15T12:57:54.195Z,65.15
2023-03-15T13:00:23.329Z,65.73
2023-03-15T13:03:02.254Z,66.33
2023-03-15T13:06:04.053Z,66.45
2023-03-15T13:08:55.776Z,65.48
2023-03-15T13:11:42.165Z,64.84
2023-03-15T13:14:41.599Z,64.62
2023-03-15T13:17:31.638Z,64.61
2023-03-15T13:20:32.029Z,63.70
2023-03-15T13:23:24.058Z,63.51
2023-03-15T13:26:21.998Z,62.93
2023-03-15T13:29:08.502Z,62.18
2023-03-15T13:31:37.843Z,62.47
2023-03-15T13:34:24.132Z,62.50
2023-03-15T13:36:57.802Z,62.87
2023-03-15T13:39:28.300Z,62.85
2023-03-15T13:42:00.583Z,63.21
2023-03-15T13:44:30.201Z,62.50
2023-03-15T13:46:59.175Z,62.54
2023-03-15T13:49:32.166Z,62.57
2023-03-15T13:52:06.691Z,62.90
2023-03-15T13:54:36.594Z,62.86
2023-03-15T13:57:12.904Z,62.82
2023-03-15T13:59:49.896Z,62.77
2023-03-15T14:02:21.951Z,62.78
2023-03-15T14:05:13.804Z,62.84
2023-03-15T14:07:45.710Z,62.66
2023-03-15T14:10:19.060Z,62.66
2023-03-15T14:12:46.582Z,62.60
2023-03-15T14:15:21.608Z,63.03
2023-03-15T14:18:08.126Z,62.89
2023-03-15T14:20:45.070Z,62.58
2023-03-15T14:23:16.956Z,62.60
2023-03-15T14:25:52.273Z,62.88
2023-03-15T14:28:20.857Z,62.81
2023-03-15T14:30:59.697Z,62.70
2023-03-15T14:33:34.403Z,62.68
2023-03-15T14:36:08.197Z,62.68
2023-03-15T14:38:39.262Z,62.37
2023-03-15T14:41:25.937Z,62.35
2023-03-15T14:43:57.103Z,62.65
2023-03-15T14:46:24.763Z,62.60
2023-03-15T14:48:53.805Z,62.50
2023-03-15T14:51:23.419Z,62.77
2023-03-15T14:53:56.093Z,63.09
2023-03-15T14:56:25.091Z,62.83
2023-03-15T14:58:55.858Z,62.43
2023-03-15T15:01:27.505Z,63.26
2023-03-15T15:03:59.838Z,62.98
2023-03-15T15:06:31.805Z,62.80
2023-03-15T15:09:02.141Z,63.30
2023-03-15T15:11:37.244Z,62.76
2023-03-15T15:14:13.238Z,61.80
2023-03-15T15:16:42.186Z,61.27
2023-03-15T15:19:10.682Z,61.06
2023-03-15T15:21:38.937Z,60.70
2023-03-15T15:24:14.794Z,61.14
2023-03-15T15:26:43.125Z,62.03
2023-03-15T15:29:15.675Z,61.17
2023-03-15T15:31:46.294Z,60.84
2023-03-15T15:34:13.866Z,60.95
2023-03-15T15:36:43.947Z,61.75
2023-03-15T15:39:29.449Z,62.00
2023-03-15T15:41:57.157Z,60.99
2023-03-15T15:44:28.164Z,60.59
2023-03-15T15:46:55.719Z,60.53
2023-03-15T15:49:23.337Z,60.31
2023-03-15T15:51:51.998Z,60.12
2023-03-15T15:54:26.049Z,60.19
2023-03-15T15:56:58.305Z,61.58
2023-03-15T15:59:27.154Z,61.44
2023-03-15T16:02:03.266Z,61.01
2023-03-15T16:04:34.075Z,60.77
2023-03-15T16:07:18.125Z,60.74
2023-03-15T16:09:47.082Z,60.80
2023-03-15T16:12:17.549Z,60.69
2023-03-15T16:14:45.063Z,60.66
2023-03-15T16:17:18.575Z,60.51
2023-03-15T16:19:46.220Z,60.83
2023-03-15T16:22:13.992Z,60.82
2023-03-15T16:24:45.317Z,60.89
2023-03-15T16:27:15.820Z,60.78
2023-03-15T16:29:48.149Z,60.76
2023-03-15T16:32:36.881Z,60.84
2023-03-15T16:35:15.255Z,60.89
2023-03-15T16:37:44.234Z,60.89
2023-03-15T16:40:21.553Z,60.90
2023-03-15T16:42:53.427Z,61.08
2023-03-15T16:45:22.844Z,61.13
2023-03-15T16:47:50.689Z,61.23
2023-03-15T16:50:19.415Z,61.45
2023-03-15T16:52:50.319Z,61.21
2023-03-15T16:55:26.374Z,61.43
2023-03-15T16:57:55.263Z,61.43
2023-03-15T17:00:23.393Z,61.53
2023-03-15T17:02:55.197Z,61.47
2023-03-15T17:05:24.635Z,61.42
2023-03-15T17:07:57.782Z,61.42
2023-03-15T17:10:30.888Z,61.58
2023-03-15T17:13:01.462Z,61.52
2023-03-15T17:15:30.579Z,61.63
2023-03-15T17:17:58.566Z,61.65
2023-03-15T17:20:28.282Z,61.80
2023-03-15T17:22:59.130Z,61.84
2023-03-15T17:25:27.410Z,61.85
2023-03-15T17:27:55.184Z,61.97
2023-03-15T17:30:34.365Z,61.91
2023-03-15T17:33:02.773Z,61.97
2023-03-15T17:35:35.010Z,62.07
2023-03-15T17:38:06.793Z,62.01
2023-03-15T17:40:36.202Z,62.10
2023-03-15T17:43:04.820Z,62.14
2023-03-15T17:45:34.489Z,62.26
2023-03-15T17:48:02.645Z,62.29
2023-03-15T17:50:33.080Z,62.31
2023-03-15T17:53:29.538Z,62.37
2023-03-15T17:55:57.320Z,62.38
2023-03-15T17:58:26.404Z,62.37
2023-03-15T18:00:54.833Z,62.43
2023-03-15T18:03:23.746Z,62.47
2023-03-15T18:05:51.800Z,62.47
2023-03-15T18:08:21.449Z,62.41
2023-03-15T18:10:51.347Z,62.65
2023-03-15T18:13:21.822Z,62.54
2023-03-15T18:15:51.133Z,62.50
2023-03-15T18:18:19.358Z,62.58
2023-03-15T18:20:49.835Z,62.68
2023-03-15T18:23:18.243Z,62.78
2023-03-15T18:25:49.225Z,62.77
2023-03-15T18:28:17.594Z,62.83
2023-03-15T18:30:45.413Z,62.93
2023-03-15T18:33:15.611Z,62.95
2023-03-15T18:35:43.462Z,62.98
2023-03-15T18:38:11.388Z,62.95
2023-03-15T18:40:39.148Z,63.07
2023-03-15T18:43:06.834Z,62.95
2023-03-15T18:45:35.850Z,63.04
2023-03-15T18:48:15.006Z,63.05
2023-03-15T18:50:43.546Z,63.15
2023-03-15T18:53:11.840Z,63.32
2023-03-15T18:55:39.546Z,63.24
2023-03-15T18:58:13.056Z,63.29
2023-03-15T19:00:41.426Z,63.35
2023-03-15T19:03:09.084Z,63.26
2023-03-15T19:05:38.208Z,63.39
2023-03-15T19:08:06.111Z,63.36
2023-03-15T19:10:33.656Z,63.47
2023-03-15T19:13:02.975Z,63.54
2023-03-15T19:15:33.259Z,63.52
2023-03-15T19:18:04.408Z,63.50
2023-03-15T19:20:31.989Z,63.56
2023-03-15T19:22:59.484Z,63.60
2023-03-15T19:25:27.047Z,63.69
2023-03-15T19:27:54.712Z,63.74
2023-03-15T19:30:22.383Z,63.78
2023-03-15T19:32:51.379Z,63.67
2023-03-15T19:35:21.261Z,63.73
2023-03-15T19:37:49.797Z,63.86
2023-03-15T19:40:18.487Z,63.79
2023-03-15T19:42:48.772Z,63.80
2023-03-15T19:45:19.034Z,63.89
2023-03-15T19:47:47.038Z,63.86
2023-03-15T19:50:15.528Z,63.82
2023-03-15T19:52:46.601Z,63.90
2023-03-15T19:55:18.531Z,63.83
2023-03-15T19:57:47.158Z,63.85
2023-03-15T20:00:18.418Z,63.93
2023-03-15T20:02:46.466Z,63.91
2023-03-15T20:05:17.495Z,63.92
2023-03-15T20:07:46.097Z,63.92
2023-03-15T20:10:23.417Z,63.92
2023-03-15T20:12:51.455Z,63.81
2023-03-15T20:15:19.542Z,63.84
2023-03-15T20:17:47.854Z,64.03
2023-03-15T20:20:16.279Z,63.99
2023-03-15T20:22:45.579Z,64.01
2023-03-15T20:25:21.540Z,64.09
2023-03-15T20:27:49.084Z,64.18
2023-03-15T20:30:17.596Z,64.27
2023-03-15T20:32:45.364Z,64.36
2023-03-15T20:35:13.781Z,64.29
2023-03-15T20:37:42.244Z,64.42
2023-03-15T20:40:17.182Z,64.31
2023-03-15T20:42:44.963Z,64.26
2023-03-15T20:45:13.911Z,64.32
2023-03-15T20:47:41.804Z,64.32
2023-03-15T20:50:11.466Z,64.36
2023-03-15T20:52:39.281Z,64.43
2023-03-15T20:55:08.989Z,64.53
2023-03-15T20:57:37.026Z,64.51
2023-03-15T21:00:12.407Z,64.60
2023-03-15T21:02:40.243Z,64.46
2023-03-15T21:05:09.188Z,64.44
2023-03-15T21:07:36.719Z,64.52
2023-03-15T21:10:04.910Z,64.54
2023-03-15T21:12:32.851Z,64.70
2023-03-15T21:15:01.749Z,64.68
2023-03-15T21:17:30.790Z,64.59
2023-03-15T21:19:58.380Z,64.72
2023-03-15T21:22:25.888Z,64.88
2023-03-15T21:24:56.103Z,64.95
2023-03-15T21:27:26.436Z,65.02
2023-03-15T21:29:54.324Z,64.95
2023-03-15T21:32:21.941Z,64.87
2023-03-15T21:34:50.763Z,65.02
2023-03-15T21:37:18.619Z,64.86
2023-03-15T21:39:46.137Z,64.89
2023-03-15T21:42:14.883Z,64.98
2023-03-15T21:44:42.381Z,64.96
2023-03-15T21:47:13.553Z,65.01
2023-03-15T21:49:44.700Z,65.02
2023-03-15T21:52:15.970Z,65.17
2023-03-15T21:54:44.960Z,65.16
2023-03-15T21:57:13.027Z,65.16
2023-03-15T21:59:41.642Z,65.10
2023-03-15T22:02:14.005Z,65.10
2023-03-15T22:04:41.843Z,65.05
2023-03-15T22:07:11.069Z,65.28
2023-03-15T22:09:38.955Z,65.26
2023-03-15T22:12:08.120Z,65.28
2023-03-15T22:14:35.613Z,65.24
2023-03-15T22:17:04.602Z,65.30
2023-03-15T22:19:32.519Z,65.30
2023-03-15T22:22:00.481Z,65.27
2023-03-15T22:24:28.034Z,65.33
2023-03-15T22:26:56.060Z,65.51
2023-03-15T22:29:23.618Z,65.46
2023-03-15T22:31:51.615Z,65.47
2023-03-15T22:34:19.887Z,65.51
2023-03-15T22:36:47.712Z,65.48
2023-03-15T22:39:15.296Z,65.52
2023-03-15T22:41:42.777Z,65.43
2023-03-15T22:44:10.405Z,65.48
2023-03-15T22:46:38.024Z,65.48
2023-03-15T22:49:05.951Z,65.46
2023-03-15T22:51:33.473Z,65.39
2023-03-15T22:54:01.004Z,65.45
2023-03-15T22:56:28.480Z,65.47
2023-03-15T22:58:56.046Z,65.57
2023-03-15T23:01:23.648Z,65.60
2023-03-15T23:03:51.231Z,65.59
2023-03-15T23:06:19.915Z,65.69
2023-03-15T23:08:47.938Z,65.70
2023-03-15T23:11:15.451Z,65.72
2023-03-15T23:13:42.995Z,65.88
2023-03-15T23:16:10.546Z,65.90
2023-03-15T23:18:38.060Z,65.82
2023-03-15T23:21:12.872Z,65.91
2023-03-15T23:23:42.613Z,65.88
2023-03-15T23:26:12.817Z,66.03
2023-03-15T23:28:40.446Z,66.00
2023-03-15T23:31:08.831Z,65.83
2023-03-15T23:33:36.410Z,65.77
2023-03-15T23:36:07.289Z,65.85
2023-03-15T23:38:35.008Z,65.96
2023-03-15T23:41:04.899Z,65.99
2023-03-15T23:43:34.144Z,66.00
2023-03-15T23:46:04.739Z,66.10
2023-03-15T23:48:35.542Z,66.14
2023-03-15T23:51:03.438Z,66.14
2023-03-15T23:53:31.570Z,66.01
2023-03-15T23:56:02.412Z,66.07
2023-03-15T23:58:44.260Z,66.09
